Saint Donatus, IA (52071)

5:48 AM CDT on March 29, 2015 (GMT -0500)
Quality Hill | | Change Station
CLOSE
Current Station
Personal Weather Station
Location: Galena, IL
Elevation: 761 ft
Nearby Weather Stations
Active Advisory: Special Statement

Elev 761 ft 42.42 °N, 90.43 °W | Updated 1 minute ago

Clear
Clear
30.8 °F
Feels Like 31 °F
N
1.0
Wind Variable Wind from SSW

Today
High -- | Low -- °F
--% Chance of Precip.
Yesterday
High -- | Low -- °F
Precip. -- in
6:50 AM 7:24 PM
Waxing Gibbous, 70% visible
Pressure 30.03 in
Visibility 10.0 miles
Clouds Clear
Windchill 31 °F
Dew Point 21 °F
Humidity 67%
Rainfall 0.00 in
Snow Depth Not available.
UV 0 out of 12
Pollen 3.90 out of 12
Air Quality Not available.
Flu Activity Not available.
METAR KDBQ 290953Z AUTO 19018G23KT 10SM CLR M01/M07 A3000 RMK AO2 SLP168 T10111072

More Conditions Fewer Conditions

Pressure 30.03 in
Visibility 10.0 miles
Clouds Clear
Windchill 31 °F
Dew Point 21 °F
Humidity 67%
Rainfall 0.00 in
Snow Depth Not available.
UV 0 out of 12
Pollen 3.90 out of 12
Air Quality Not available.
Flu Activity Not available.
METAR KDBQ 290953Z AUTO 19018G23KT 10SM CLR M01/M07 A3000 RMK AO2 SLP168 T10111072

More Conditions Fewer Conditions

10-Day Weather Forecast

Almanac

Astronomy

Mar. 29, 2015 Rise Set
Actual Time
Civil Twilight
Nautical Twilight
Astronomical Twilight
Moon
Length of Visible Light
Length of Day
Tomorrow will be .
, % of the Moon is Illuminated

Today's Extremes

State Highs State Lows

Community

WunderPhotos

Upload Photos

1,809,214 photos uploaded!

WunderBlogs® & News

Nearby

Air Quality

  Air Quality AQ Index Pollutant
Not available.

Snow Depth

Station Depth Elevation

Earthquake Activity

City Distance Mag. Time & Date
Minimum magnitude displayed is 2.5.

Coastal Water Temperatures

Place Temperature

Stations

Nearby Weather Stations

Station Location Temp. Windchill Dew Point Humidity Wind Precip. Elev Updated Type
                   
Special Statement
Statement as of 5:16 AM CDT on March 29, 2015

... Brief wintry mix this morning...

An area of rain is moving across Iowa and will move into illionis
between 6 and 7 am. With temperatures hovering near or at freezing
across the area... freezing rain is possible. Little to no ice
accumulation are expected at this time. The freezing rain will
transition to all rain shortly after it begins as temperatures
continue to rise. Those who are travelling this morning should be
alert for possible slippery conditions. Temperatures will warm
above freezing quickly this morning... so any accumulation of ice
should melt this morning.